sensor_id;sensor_type;location;lat;lon;timestamp;P1;durP1;ratioP1;P2;durP2;ratioP2
75939;SDS011;75809;44.872;20.642;2024-01-27T00:00:43;59.15;;;26.52;;
75939;SDS011;75809;44.872;20.642;2024-01-27T00:03:09;81.50;;;38.42;;
75939;SDS011;75809;44.872;20.642;2024-01-27T00:05:34;69.65;;;34.38;;
75939;SDS011;75809;44.872;20.642;2024-01-27T00:08:00;76.30;;;36.67;;
75939;SDS011;75809;44.872;20.642;2024-01-27T00:10:25;68.00;;;31.85;;
75939;SDS011;75809;44.872;20.642;2024-01-27T00:12:51;63.70;;;30.55;;
75939;SDS011;75809;44.872;20.642;2024-01-27T00:15:17;61.47;;;29.02;;
75939;SDS011;75809;44.872;20.642;2024-01-27T00:17:42;59.30;;;26.65;;
75939;SDS011;75809;44.872;20.642;2024-01-27T00:20:09;63.72;;;29.63;;
75939;SDS011;75809;44.872;20.642;2024-01-27T00:22:35;59.88;;;27.15;;
75939;SDS011;75809;44.872;20.642;2024-01-27T00:25:00;56.20;;;25.92;;
75939;SDS011;75809;44.872;20.642;2024-01-27T00:27:26;55.83;;;26.90;;
75939;SDS011;75809;44.872;20.642;2024-01-27T00:29:51;49.97;;;23.40;;
75939;SDS011;75809;44.872;20.642;2024-01-27T00:32:17;52.78;;;23.80;;
75939;SDS011;75809;44.872;20.642;2024-01-27T00:34:42;53.97;;;25.13;;
75939;SDS011;75809;44.872;20.642;2024-01-27T00:37:08;53.42;;;25.75;;
75939;SDS011;75809;44.872;20.642;2024-01-27T00:39:33;49.00;;;23.63;;
75939;SDS011;75809;44.872;20.642;2024-01-27T00:41:58;50.15;;;24.25;;
75939;SDS011;75809;44.872;20.642;2024-01-27T00:44:24;57.10;;;24.00;;
75939;SDS011;75809;44.872;20.642;2024-01-27T00:46:50;54.20;;;24.02;;
75939;SDS011;75809;44.872;20.642;2024-01-27T00:49:15;47.22;;;24.40;;
75939;SDS011;75809;44.872;20.642;2024-01-27T00:51:41;60.63;;;25.48;;
75939;SDS011;75809;44.872;20.642;2024-01-27T00:54:06;56.08;;;25.38;;
75939;SDS011;75809;44.872;20.642;2024-01-27T00:56:32;62.03;;;29.67;;
75939;SDS011;75809;44.872;20.642;2024-01-27T00:58:57;58.33;;;25.45;;
75939;SDS011;75809;44.872;20.642;2024-01-27T01:01:23;50.22;;;24.60;;
75939;SDS011;75809;44.872;20.642;2024-01-27T01:03:48;58.30;;;26.92;;
75939;SDS011;75809;44.872;20.642;2024-01-27T01:06:13;51.70;;;26.30;;
75939;SDS011;75809;44.872;20.642;2024-01-27T01:08:39;55.00;;;24.38;;
75939;SDS011;75809;44.872;20.642;2024-01-27T01:11:04;50.33;;;23.83;;
75939;SDS011;75809;44.872;20.642;2024-01-27T01:13:30;46.60;;;22.83;;
75939;SDS011;75809;44.872;20.642;2024-01-27T01:15:55;45.75;;;22.25;;
75939;SDS011;75809;44.872;20.642;2024-01-27T01:18:21;42.63;;;21.40;;
75939;SDS011;75809;44.872;20.642;2024-01-27T01:20:46;44.17;;;21.20;;
75939;SDS011;75809;44.872;20.642;2024-01-27T01:23:12;45.50;;;22.02;;
75939;SDS011;75809;44.872;20.642;2024-01-27T01:25:37;42.20;;;21.58;;
75939;SDS011;75809;44.872;20.642;2024-01-27T01:28:03;48.92;;;22.35;;
75939;SDS011;75809;44.872;20.642;2024-01-27T01:30:28;42.72;;;21.67;;
75939;SDS011;75809;44.872;20.642;2024-01-27T01:32:54;45.55;;;22.02;;
75939;SDS011;75809;44.872;20.642;2024-01-27T01:35:19;47.90;;;21.60;;
75939;SDS011;75809;44.872;20.642;2024-01-27T01:37:45;41.15;;;21.58;;
75939;SDS011;75809;44.872;20.642;2024-01-27T01:40:13;42.58;;;21.67;;
75939;SDS011;75809;44.872;20.642;2024-01-27T01:42:40;41.63;;;21.55;;
75939;SDS011;75809;44.872;20.642;2024-01-27T01:45:06;39.15;;;21.00;;
75939;SDS011;75809;44.872;20.642;2024-01-27T01:47:32;43.05;;;21.67;;
75939;SDS011;75809;44.872;20.642;2024-01-27T01:49:58;47.17;;;22.35;;
75939;SDS011;75809;44.872;20.642;2024-01-27T01:52:24;48.85;;;22.58;;
75939;SDS011;75809;44.872;20.642;2024-01-27T01:54:50;50.85;;;24.90;;
75939;SDS011;75809;44.872;20.642;2024-01-27T01:57:16;54.15;;;25.27;;
75939;SDS011;75809;44.872;20.642;2024-01-27T01:59:42;50.17;;;25.95;;
75939;SDS011;75809;44.872;20.642;2024-01-27T02:02:12;57.90;;;25.80;;
75939;SDS011;75809;44.872;20.642;2024-01-27T02:04:41;45.88;;;23.27;;
75939;SDS011;75809;44.872;20.642;2024-01-27T02:07:06;53.63;;;24.58;;
75939;SDS011;75809;44.872;20.642;2024-01-27T02:09:32;38.25;;;21.17;;
75939;SDS011;75809;44.872;20.642;2024-01-27T02:11:57;37.83;;;20.15;;
75939;SDS011;75809;44.872;20.642;2024-01-27T02:14:22;41.90;;;18.30;;
75939;SDS011;75809;44.872;20.642;2024-01-27T02:16:50;36.72;;;17.95;;
75939;SDS011;75809;44.872;20.642;2024-01-27T02:19:16;33.13;;;17.13;;
75939;SDS011;75809;44.872;20.642;2024-01-27T02:21:41;39.85;;;21.00;;
75939;SDS011;75809;44.872;20.642;2024-01-27T02:24:07;39.42;;;17.10;;
75939;SDS011;75809;44.872;20.642;2024-01-27T02:26:33;36.30;;;18.10;;
75939;SDS011;75809;44.872;20.642;2024-01-27T02:28:58;34.70;;;17.77;;
75939;SDS011;75809;44.872;20.642;2024-01-27T02:31:23;35.80;;;17.08;;
75939;SDS011;75809;44.872;20.642;2024-01-27T02:33:49;34.28;;;16.85;;
75939;SDS011;75809;44.872;20.642;2024-01-27T02:36:15;34.22;;;17.83;;
75939;SDS011;75809;44.872;20.642;2024-01-27T02:38:40;37.70;;;18.20;;
75939;SDS011;75809;44.872;20.642;2024-01-27T02:41:06;35.05;;;16.90;;
75939;SDS011;75809;44.872;20.642;2024-01-27T02:43:31;43.55;;;18.02;;
75939;SDS011;75809;44.872;20.642;2024-01-27T02:45:57;46.05;;;18.45;;
75939;SDS011;75809;44.872;20.642;2024-01-27T02:48:22;36.25;;;18.48;;
75939;SDS011;75809;44.872;20.642;2024-01-27T02:50:48;34.10;;;18.13;;
75939;SDS011;75809;44.872;20.642;2024-01-27T02:53:13;41.25;;;18.45;;
75939;SDS011;75809;44.872;20.642;2024-01-27T02:55:38;33.53;;;17.20;;
75939;SDS011;75809;44.872;20.642;2024-01-27T02:58:04;30.30;;;13.95;;
75939;SDS011;75809;44.872;20.642;2024-01-27T03:00:29;33.85;;;14.68;;
75939;SDS011;75809;44.872;20.642;2024-01-27T03:02:55;33.30;;;13.75;;
75939;SDS011;75809;44.872;20.642;2024-01-27T03:05:23;23.67;;;10.80;;
75939;SDS011;75809;44.872;20.642;2024-01-27T03:07:48;29.50;;;12.63;;
75939;SDS011;75809;44.872;20.642;2024-01-27T03:10:14;39.35;;;13.77;;
75939;SDS011;75809;44.872;20.642;2024-01-27T03:12:39;24.52;;;10.45;;
75939;SDS011;75809;44.872;20.642;2024-01-27T03:15:05;26.40;;;10.70;;
75939;SDS011;75809;44.872;20.642;2024-01-27T03:17:30;23.88;;;8.82;;
75939;SDS011;75809;44.872;20.642;2024-01-27T03:19:56;23.45;;;9.35;;
75939;SDS011;75809;44.872;20.642;2024-01-27T03:22:21;18.55;;;8.88;;
75939;SDS011;75809;44.872;20.642;2024-01-27T03:24:47;19.90;;;8.30;;
75939;SDS011;75809;44.872;20.642;2024-01-27T03:27:12;23.58;;;8.48;;
75939;SDS011;75809;44.872;20.642;2024-01-27T03:29:38;13.85;;;6.57;;
75939;SDS011;75809;44.872;20.642;2024-01-27T03:32:03;22.70;;;8.40;;
75939;SDS011;75809;44.872;20.642;2024-01-27T03:34:29;13.18;;;5.65;;
75939;SDS011;75809;44.872;20.642;2024-01-27T03:36:54;24.48;;;8.25;;
75939;SDS011;75809;44.872;20.642;2024-01-27T03:39:20;22.00;;;8.40;;
75939;SDS011;75809;44.872;20.642;2024-01-27T03:41:45;17.10;;;6.55;;
75939;SDS011;75809;44.872;20.642;2024-01-27T03:44:11;17.65;;;5.65;;
75939;SDS011;75809;44.872;20.642;2024-01-27T03:46:36;17.23;;;6.65;;
75939;SDS011;75809;44.872;20.642;2024-01-27T03:49:04;10.98;;;4.65;;
75939;SDS011;75809;44.872;20.642;2024-01-27T03:51:30;12.07;;;3.67;;
75939;SDS011;75809;44.872;20.642;2024-01-27T03:53:55;8.25;;;2.90;;
75939;SDS011;75809;44.872;20.642;2024-01-27T03:56:21;9.77;;;4.13;;
75939;SDS011;75809;44.872;20.642;2024-01-27T03:58:46;9.07;;;2.88;;
75939;SDS011;75809;44.872;20.642;2024-01-27T04:01:12;10.85;;;3.00;;
75939;SDS011;75809;44.872;20.642;2024-01-27T04:03:37;7.03;;;3.03;;
75939;SDS011;75809;44.872;20.642;2024-01-27T04:06:02;11.82;;;3.13;;
75939;SDS011;75809;44.872;20.642;2024-01-27T04:08:29;8.18;;;2.78;;
75939;SDS011;75809;44.872;20.642;2024-01-27T04:10:55;7.72;;;2.63;;
75939;SDS011;75809;44.872;20.642;2024-01-27T04:13:21;6.18;;;2.40;;
75939;SDS011;75809;44.872;20.642;2024-01-27T04:15:46;10.48;;;2.78;;
75939;SDS011;75809;44.872;20.642;2024-01-27T04:18:12;8.93;;;2.58;;
75939;SDS011;75809;44.872;20.642;2024-01-27T04:20:37;11.38;;;3.13;;
75939;SDS011;75809;44.872;20.642;2024-01-27T04:23:03;7.93;;;2.47;;
75939;SDS011;75809;44.872;20.642;2024-01-27T04:25:29;12.57;;;4.15;;
75939;SDS011;75809;44.872;20.642;2024-01-27T04:27:54;9.77;;;2.65;;
75939;SDS011;75809;44.872;20.642;2024-01-27T04:30:20;7.20;;;2.00;;
75939;SDS011;75809;44.872;20.642;2024-01-27T04:32:45;8.73;;;2.92;;
75939;SDS011;75809;44.872;20.642;2024-01-27T04:35:14;8.95;;;2.55;;
75939;SDS011;75809;44.872;20.642;2024-01-27T04:37:39;5.32;;;1.90;;
75939;SDS011;75809;44.872;20.642;2024-01-27T04:40:05;12.63;;;2.50;;
75939;SDS011;75809;44.872;20.642;2024-01-27T04:42:34;4.75;;;1.52;;
75939;SDS011;75809;44.872;20.642;2024-01-27T04:45:00;4.25;;;1.80;;
75939;SDS011;75809;44.872;20.642;2024-01-27T04:47:26;5.07;;;1.70;;
75939;SDS011;75809;44.872;20.642;2024-01-27T04:49:51;4.00;;;1.50;;
75939;SDS011;75809;44.872;20.642;2024-01-27T04:52:17;4.15;;;1.80;;
75939;SDS011;75809;44.872;20.642;2024-01-27T04:54:42;3.13;;;1.00;;
75939;SDS011;75809;44.872;20.642;2024-01-27T04:57:08;4.88;;;1.63;;
75939;SDS011;75809;44.872;20.642;2024-01-27T04:59:35;4.55;;;1.50;;
75939;SDS011;75809;44.872;20.642;2024-01-27T05:02:00;3.95;;;1.45;;
75939;SDS011;75809;44.872;20.642;2024-01-27T05:04:26;5.72;;;1.77;;
75939;SDS011;75809;44.872;20.642;2024-01-27T05:06:52;4.60;;;1.38;;
75939;SDS011;75809;44.872;20.642;2024-01-27T05:09:17;3.42;;;1.73;;
75939;SDS011;75809;44.872;20.642;2024-01-27T05:11:43;3.80;;;1.73;;
75939;SDS011;75809;44.872;20.642;2024-01-27T05:14:10;3.55;;;1.00;;
75939;SDS011;75809;44.872;20.642;2024-01-27T05:16:36;4.78;;;1.67;;
75939;SDS011;75809;44.872;20.642;2024-01-27T05:19:02;7.25;;;2.28;;
75939;SDS011;75809;44.872;20.642;2024-01-27T05:21:27;4.32;;;1.42;;
75939;SDS011;75809;44.872;20.642;2024-01-27T05:23:53;4.70;;;1.35;;
75939;SDS011;75809;44.872;20.642;2024-01-27T05:26:19;3.58;;;1.20;;
75939;SDS011;75809;44.872;20.642;2024-01-27T05:28:45;4.25;;;1.27;;
75939;SDS011;75809;44.872;20.642;2024-01-27T05:31:10;4.70;;;1.25;;
75939;SDS011;75809;44.872;20.642;2024-01-27T05:33:36;2.33;;;1.30;;
75939;SDS011;75809;44.872;20.642;2024-01-27T05:36:02;3.33;;;1.00;;
75939;SDS011;75809;44.872;20.642;2024-01-27T05:38:28;3.75;;;1.10;;
75939;SDS011;75809;44.872;20.642;2024-01-27T05:40:55;2.33;;;1.00;;
75939;SDS011;75809;44.872;20.642;2024-01-27T05:43:20;3.13;;;1.15;;
75939;SDS011;75809;44.872;20.642;2024-01-27T05:45:46;2.75;;;1.13;;
75939;SDS011;75809;44.872;20.642;2024-01-27T05:48:12;4.35;;;1.33;;
75939;SDS011;75809;44.872;20.642;2024-01-27T05:50:40;3.97;;;0.70;;
75939;SDS011;75809;44.872;20.642;2024-01-27T05:53:07;4.18;;;0.98;;
75939;SDS011;75809;44.872;20.642;2024-01-27T05:55:32;5.55;;;1.20;;
75939;SDS011;75809;44.872;20.642;2024-01-27T05:57:59;2.25;;;0.85;;
75939;SDS011;75809;44.872;20.642;2024-01-27T06:00:24;2.80;;;0.90;;
75939;SDS011;75809;44.872;20.642;2024-01-27T06:02:50;1.58;;;0.80;;
75939;SDS011;75809;44.872;20.642;2024-01-27T06:05:15;4.50;;;1.27;;
75939;SDS011;75809;44.872;20.642;2024-01-27T06:07:41;2.13;;;0.90;;
75939;SDS011;75809;44.872;20.642;2024-01-27T06:10:10;3.47;;;1.08;;
75939;SDS011;75809;44.872;20.642;2024-01-27T06:12:37;5.70;;;0.85;;
75939;SDS011;75809;44.872;20.642;2024-01-27T06:15:03;2.63;;;0.77;;
75939;SDS011;75809;44.872;20.642;2024-01-27T06:17:29;1.75;;;0.82;;
75939;SDS011;75809;44.872;20.642;2024-01-27T06:19:54;4.10;;;0.73;;
75939;SDS011;75809;44.872;20.642;2024-01-27T06:22:20;3.95;;;0.68;;
75939;SDS011;75809;44.872;20.642;2024-01-27T06:24:45;1.63;;;0.60;;
75939;SDS011;75809;44.872;20.642;2024-01-27T06:27:11;2.58;;;0.85;;
75939;SDS011;75809;44.872;20.642;2024-01-27T06:29:37;4.35;;;1.35;;
75939;SDS011;75809;44.872;20.642;2024-01-27T06:32:03;3.42;;;0.90;;
75939;SDS011;75809;44.872;20.642;2024-01-27T06:34:29;1.15;;;0.75;;
75939;SDS011;75809;44.872;20.642;2024-01-27T06:36:54;2.78;;;1.02;;
75939;SDS011;75809;44.872;20.642;2024-01-27T06:39:20;8.68;;;1.90;;
75939;SDS011;75809;44.872;20.642;2024-01-27T06:41:46;2.40;;;1.00;;
75939;SDS011;75809;44.872;20.642;2024-01-27T06:44:12;3.00;;;1.13;;
75939;SDS011;75809;44.872;20.642;2024-01-27T06:46:38;3.65;;;1.20;;
75939;SDS011;75809;44.872;20.642;2024-01-27T06:49:03;2.22;;;0.93;;
75939;SDS011;75809;44.872;20.642;2024-01-27T06:51:29;6.35;;;1.38;;
75939;SDS011;75809;44.872;20.642;2024-01-27T06:53:54;2.42;;;0.73;;
75939;SDS011;75809;44.872;20.642;2024-01-27T06:56:20;3.30;;;0.80;;
75939;SDS011;75809;44.872;20.642;2024-01-27T06:58:45;2.08;;;0.85;;
75939;SDS011;75809;44.872;20.642;2024-01-27T07:01:11;3.33;;;0.90;;
75939;SDS011;75809;44.872;20.642;2024-01-27T07:03:36;3.50;;;1.10;;
75939;SDS011;75809;44.872;20.642;2024-01-27T07:06:04;0.88;;;0.77;;
75939;SDS011;75809;44.872;20.642;2024-01-27T07:08:30;3.35;;;1.88;;
75939;SDS011;75809;44.872;20.642;2024-01-27T07:10:55;2.03;;;0.77;;
75939;SDS011;75809;44.872;20.642;2024-01-27T07:13:20;2.08;;;0.90;;
75939;SDS011;75809;44.872;20.642;2024-01-27T07:15:46;3.42;;;1.00;;
75939;SDS011;75809;44.872;20.642;2024-01-27T07:18:11;4.65;;;1.65;;
75939;SDS011;75809;44.872;20.642;2024-01-27T07:20:37;3.45;;;1.23;;
75939;SDS011;75809;44.872;20.642;2024-01-27T07:23:02;3.85;;;1.02;;
75939;SDS011;75809;44.872;20.642;2024-01-27T07:25:28;3.88;;;1.65;;
75939;SDS011;75809;44.872;20.642;2024-01-27T07:27:54;3.85;;;0.93;;
75939;SDS011;75809;44.872;20.642;2024-01-27T07:30:20;3.30;;;1.23;;
75939;SDS011;75809;44.872;20.642;2024-01-27T07:32:46;3.30;;;1.25;;
75939;SDS011;75809;44.872;20.642;2024-01-27T07:35:11;3.97;;;1.33;;
75939;SDS011;75809;44.872;20.642;2024-01-27T07:37:37;2.90;;;1.30;;
75939;SDS011;75809;44.872;20.642;2024-01-27T07:40:02;1.92;;;1.33;;
75939;SDS011;75809;44.872;20.642;2024-01-27T07:42:28;3.40;;;0.73;;
75939;SDS011;75809;44.872;20.642;2024-01-27T07:44:54;4.35;;;1.30;;
75939;SDS011;75809;44.872;20.642;2024-01-27T07:47:19;2.05;;;1.10;;
75939;SDS011;75809;44.872;20.642;2024-01-27T07:49:44;7.55;;;1.92;;
75939;SDS011;75809;44.872;20.642;2024-01-27T07:52:10;8.38;;;2.28;;
75939;SDS011;75809;44.872;20.642;2024-01-27T07:54:35;6.82;;;1.70;;
75939;SDS011;75809;44.872;20.642;2024-01-27T07:57:04;4.95;;;1.42;;
75939;SDS011;75809;44.872;20.642;2024-01-27T07:59:30;6.82;;;1.58;;
75939;SDS011;75809;44.872;20.642;2024-01-27T08:01:56;5.22;;;1.58;;
75939;SDS011;75809;44.872;20.642;2024-01-27T08:04:21;4.75;;;1.20;;
75939;SDS011;75809;44.872;20.642;2024-01-27T08:06:47;5.93;;;1.77;;
75939;SDS011;75809;44.872;20.642;2024-01-27T08:09:14;4.85;;;1.45;;
75939;SDS011;75809;44.872;20.642;2024-01-27T08:11:41;4.50;;;1.23;;
75939;SDS011;75809;44.872;20.642;2024-01-27T08:14:06;4.18;;;1.55;;
75939;SDS011;75809;44.872;20.642;2024-01-27T08:16:32;9.15;;;2.65;;
75939;SDS011;75809;44.872;20.642;2024-01-27T08:18:57;3.40;;;1.35;;
75939;SDS011;75809;44.872;20.642;2024-01-27T08:21:23;5.65;;;1.80;;
75939;SDS011;75809;44.872;20.642;2024-01-27T08:23:48;6.60;;;2.13;;
75939;SDS011;75809;44.872;20.642;2024-01-27T08:26:14;6.05;;;2.10;;
75939;SDS011;75809;44.872;20.642;2024-01-27T08:28:39;10.00;;;3.30;;
75939;SDS011;75809;44.872;20.642;2024-01-27T08:31:05;4.80;;;1.65;;
75939;SDS011;75809;44.872;20.642;2024-01-27T08:33:31;12.23;;;2.90;;
75939;SDS011;75809;44.872;20.642;2024-01-27T08:35:57;10.73;;;2.90;;
75939;SDS011;75809;44.872;20.642;2024-01-27T08:38:22;11.38;;;2.08;;
75939;SDS011;75809;44.872;20.642;2024-01-27T08:40:48;8.77;;;2.15;;
75939;SDS011;75809;44.872;20.642;2024-01-27T08:43:13;9.52;;;2.20;;
75939;SDS011;75809;44.872;20.642;2024-01-27T08:45:39;6.30;;;2.05;;
75939;SDS011;75809;44.872;20.642;2024-01-27T08:48:05;8.88;;;2.55;;
75939;SDS011;75809;44.872;20.642;2024-01-27T08:50:31;8.43;;;2.53;;
75939;SDS011;75809;44.872;20.642;2024-01-27T08:52:56;7.45;;;2.13;;
75939;SDS011;75809;44.872;20.642;2024-01-27T08:55:22;7.57;;;2.28;;
75939;SDS011;75809;44.872;20.642;2024-01-27T08:57:49;10.40;;;2.20;;
75939;SDS011;75809;44.872;20.642;2024-01-27T09:00:17;5.13;;;1.80;;
75939;SDS011;75809;44.872;20.642;2024-01-27T09:02:43;7.88;;;1.90;;
75939;SDS011;75809;44.872;20.642;2024-01-27T09:05:09;6.15;;;1.80;;
75939;SDS011;75809;44.872;20.642;2024-01-27T09:07:34;5.72;;;1.92;;
75939;SDS011;75809;44.872;20.642;2024-01-27T09:10:00;6.03;;;2.00;;
75939;SDS011;75809;44.872;20.642;2024-01-27T09:12:26;11.75;;;2.67;;
75939;SDS011;75809;44.872;20.642;2024-01-27T09:14:51;11.18;;;2.30;;
75939;SDS011;75809;44.872;20.642;2024-01-27T09:17:19;12.85;;;2.88;;
75939;SDS011;75809;44.872;20.642;2024-01-27T09:19:45;6.05;;;1.42;;
75939;SDS011;75809;44.872;20.642;2024-01-27T09:22:10;14.20;;;2.72;;
75939;SDS011;75809;44.872;20.642;2024-01-27T09:24:36;6.43;;;1.77;;
75939;SDS011;75809;44.872;20.642;2024-01-27T09:27:01;5.72;;;1.50;;
75939;SDS011;75809;44.872;20.642;2024-01-27T09:29:27;4.88;;;1.33;;
75939;SDS011;75809;44.872;20.642;2024-01-27T09:31:52;4.20;;;1.48;;
75939;SDS011;75809;44.872;20.642;2024-01-27T09:34:18;8.25;;;2.03;;
75939;SDS011;75809;44.872;20.642;2024-01-27T09:36:43;6.70;;;1.98;;
75939;SDS011;75809;44.872;20.642;2024-01-27T09:39:08;6.50;;;1.35;;
75939;SDS011;75809;44.872;20.642;2024-01-27T09:41:34;7.55;;;2.08;;
75939;SDS011;75809;44.872;20.642;2024-01-27T09:44:03;8.70;;;2.00;;
75939;SDS011;75809;44.872;20.642;2024-01-27T09:46:30;7.55;;;1.55;;
75939;SDS011;75809;44.872;20.642;2024-01-27T09:48:56;5.47;;;1.20;;
75939;SDS011;75809;44.872;20.642;2024-01-27T09:51:22;9.02;;;1.63;;
75939;SDS011;75809;44.872;20.642;2024-01-27T09:53:48;11.50;;;2.53;;
75939;SDS011;75809;44.872;20.642;2024-01-27T09:56:16;7.13;;;1.55;;
75939;SDS011;75809;44.872;20.642;2024-01-27T09:58:44;4.70;;;1.30;;
75939;SDS011;75809;44.872;20.642;2024-01-27T10:01:10;5.43;;;1.63;;
75939;SDS011;75809;44.872;20.642;2024-01-27T10:03:36;7.85;;;1.90;;
75939;SDS011;75809;44.872;20.642;2024-01-27T10:06:07;11.13;;;1.98;;
75939;SDS011;75809;44.872;20.642;2024-01-27T10:08:34;7.97;;;1.42;;
75939;SDS011;75809;44.872;20.642;2024-01-27T10:10:59;4.35;;;0.75;;
75939;SDS011;75809;44.872;20.642;2024-01-27T10:13:35;3.97;;;1.27;;
75939;SDS011;75809;44.872;20.642;2024-01-27T10:16:05;10.38;;;1.90;;
75939;SDS011;75809;44.872;20.642;2024-01-27T10:18:31;3.15;;;1.20;;
75939;SDS011;75809;44.872;20.642;2024-01-27T10:20:58;3.08;;;1.00;;
75939;SDS011;75809;44.872;20.642;2024-01-27T10:23:24;5.80;;;1.27;;
75939;SDS011;75809;44.872;20.642;2024-01-27T10:25:50;5.63;;;1.58;;
75939;SDS011;75809;44.872;20.642;2024-01-27T10:28:17;11.75;;;1.83;;
75939;SDS011;75809;44.872;20.642;2024-01-27T10:30:45;3.55;;;1.40;;
75939;SDS011;75809;44.872;20.642;2024-01-27T10:33:13;4.88;;;1.38;;
75939;SDS011;75809;44.872;20.642;2024-01-27T10:35:42;9.38;;;1.55;;
75939;SDS011;75809;44.872;20.642;2024-01-27T10:38:08;5.80;;;1.73;;
75939;SDS011;75809;44.872;20.642;2024-01-27T10:40:35;4.38;;;1.50;;
75939;SDS011;75809;44.872;20.642;2024-01-27T10:45:30;7.68;;;1.40;;
75939;SDS011;75809;44.872;20.642;2024-01-27T10:48:01;6.45;;;1.92;;
75939;SDS011;75809;44.872;20.642;2024-01-27T10:50:28;4.82;;;1.40;;
75939;SDS011;75809;44.872;20.642;2024-01-27T10:52:54;5.18;;;1.58;;
75939;SDS011;75809;44.872;20.642;2024-01-27T10:55:23;10.05;;;2.70;;
75939;SDS011;75809;44.872;20.642;2024-01-27T10:57:50;5.70;;;1.60;;
75939;SDS011;75809;44.872;20.642;2024-01-27T11:00:18;9.00;;;1.80;;
75939;SDS011;75809;44.872;20.642;2024-01-27T11:02:44;6.30;;;1.23;;
75939;SDS011;75809;44.872;20.642;2024-01-27T11:05:10;9.75;;;1.67;;
75939;SDS011;75809;44.872;20.642;2024-01-27T11:07:36;5.60;;;1.60;;
75939;SDS011;75809;44.872;20.642;2024-01-27T11:10:04;6.40;;;1.65;;
75939;SDS011;75809;44.872;20.642;2024-01-27T11:12:30;5.72;;;1.40;;
75939;SDS011;75809;44.872;20.642;2024-01-27T11:14:56;6.40;;;1.13;;
75939;SDS011;75809;44.872;20.642;2024-01-27T11:17:24;4.50;;;1.63;;
75939;SDS011;75809;44.872;20.642;2024-01-27T11:19:50;8.85;;;2.25;;
75939;SDS011;75809;44.872;20.642;2024-01-27T11:22:26;10.27;;;2.50;;
75939;SDS011;75809;44.872;20.642;2024-01-27T11:25:16;9.57;;;2.92;;
75939;SDS011;75809;44.872;20.642;2024-01-27T11:27:43;18.08;;;3.55;;
75939;SDS011;75809;44.872;20.642;2024-01-27T11:32:55;10.35;;;3.05;;
75939;SDS011;75809;44.872;20.642;2024-01-27T11:35:21;8.75;;;2.40;;
75939;SDS011;75809;44.872;20.642;2024-01-27T11:37:47;10.60;;;2.53;;
75939;SDS011;75809;44.872;20.642;2024-01-27T11:40:13;3.78;;;1.38;;
75939;SDS011;75809;44.872;20.642;2024-01-27T11:42:40;6.85;;;1.55;;
75939;SDS011;75809;44.872;20.642;2024-01-27T11:45:07;7.22;;;1.85;;
75939;SDS011;75809;44.872;20.642;2024-01-27T11:47:33;9.07;;;2.05;;
75939;SDS011;75809;44.872;20.642;2024-01-27T11:49:58;8.30;;;2.22;;
75939;SDS011;75809;44.872;20.642;2024-01-27T11:52:24;7.13;;;1.70;;
75939;SDS011;75809;44.872;20.642;2024-01-27T11:54:56;4.75;;;1.45;;
75939;SDS011;75809;44.872;20.642;2024-01-27T11:57:22;4.82;;;1.20;;
75939;SDS011;75809;44.872;20.642;2024-01-27T11:59:48;7.72;;;2.30;;
75939;SDS011;75809;44.872;20.642;2024-01-27T12:02:14;4.28;;;1.75;;
75939;SDS011;75809;44.872;20.642;2024-01-27T12:04:39;2.92;;;1.23;;
75939;SDS011;75809;44.872;20.642;2024-01-27T12:07:05;5.97;;;1.92;;
75939;SDS011;75809;44.872;20.642;2024-01-27T12:09:32;3.92;;;1.48;;
75939;SDS011;75809;44.872;20.642;2024-01-27T12:11:57;6.50;;;1.67;;
75939;SDS011;75809;44.872;20.642;2024-01-27T12:14:22;5.15;;;1.52;;
75939;SDS011;75809;44.872;20.642;2024-01-27T12:16:48;7.13;;;1.80;;
75939;SDS011;75809;44.872;20.642;2024-01-27T12:19:14;5.65;;;1.55;;
75939;SDS011;75809;44.872;20.642;2024-01-27T12:21:46;5.82;;;2.10;;
75939;SDS011;75809;44.872;20.642;2024-01-27T12:24:15;5.75;;;1.98;;
75939;SDS011;75809;44.872;20.642;2024-01-27T12:26:44;5.43;;;1.45;;
75939;SDS011;75809;44.872;20.642;2024-01-27T12:29:10;4.85;;;1.38;;
75939;SDS011;75809;44.872;20.642;2024-01-27T12:31:36;6.78;;;1.58;;
75939;SDS011;75809;44.872;20.642;2024-01-27T12:34:02;3.72;;;1.60;;
75939;SDS011;75809;44.872;20.642;2024-01-27T12:36:28;3.35;;;1.30;;
75939;SDS011;75809;44.872;20.642;2024-01-27T12:38:57;4.63;;;1.55;;
75939;SDS011;75809;44.872;20.642;2024-01-27T12:41:25;5.00;;;1.45;;
75939;SDS011;75809;44.872;20.642;2024-01-27T12:43:54;3.58;;;1.38;;
75939;SDS011;75809;44.872;20.642;2024-01-27T12:46:20;4.40;;;0.98;;
75939;SDS011;75809;44.872;20.642;2024-01-27T12:48:46;5.25;;;1.27;;
75939;SDS011;75809;44.872;20.642;2024-01-27T12:51:12;4.15;;;1.05;;
75939;SDS011;75809;44.872;20.642;2024-01-27T12:53:39;7.55;;;1.75;;
75939;SDS011;75809;44.872;20.642;2024-01-27T12:56:10;7.38;;;1.95;;
75939;SDS011;75809;44.872;20.642;2024-01-27T13:01:02;9.27;;;1.70;;
75939;SDS011;75809;44.872;20.642;2024-01-27T13:03:28;5.95;;;1.70;;
75939;SDS011;75809;44.872;20.642;2024-01-27T13:05:54;5.22;;;1.25;;
75939;SDS011;75809;44.872;20.642;2024-01-27T13:08:20;4.57;;;1.20;;
75939;SDS011;75809;44.872;20.642;2024-01-27T13:10:45;5.75;;;1.73;;
75939;SDS011;75809;44.872;20.642;2024-01-27T13:13:12;4.40;;;2.10;;
75939;SDS011;75809;44.872;20.642;2024-01-27T13:15:37;5.75;;;1.73;;
75939;SDS011;75809;44.872;20.642;2024-01-27T13:18:04;5.45;;;1.95;;
75939;SDS011;75809;44.872;20.642;2024-01-27T13:20:29;6.18;;;1.70;;
75939;SDS011;75809;44.872;20.642;2024-01-27T13:22:55;8.32;;;2.17;;
75939;SDS011;75809;44.872;20.642;2024-01-27T13:25:21;3.97;;;1.33;;
75939;SDS011;75809;44.872;20.642;2024-01-27T13:27:46;6.53;;;1.33;;
75939;SDS011;75809;44.872;20.642;2024-01-27T13:30:12;5.72;;;1.50;;
75939;SDS011;75809;44.872;20.642;2024-01-27T13:32:38;11.13;;;1.70;;
75939;SDS011;75809;44.872;20.642;2024-01-27T13:35:04;5.53;;;2.47;;
75939;SDS011;75809;44.872;20.642;2024-01-27T13:37:32;5.90;;;1.70;;
75939;SDS011;75809;44.872;20.642;2024-01-27T13:39:59;4.80;;;1.52;;
75939;SDS011;75809;44.872;20.642;2024-01-27T13:42:25;6.80;;;1.45;;
75939;SDS011;75809;44.872;20.642;2024-01-27T13:44:51;6.05;;;1.67;;
75939;SDS011;75809;44.872;20.642;2024-01-27T13:47:16;7.03;;;1.45;;
75939;SDS011;75809;44.872;20.642;2024-01-27T13:49:42;4.95;;;1.23;;
75939;SDS011;75809;44.872;20.642;2024-01-27T13:52:08;7.00;;;1.48;;
75939;SDS011;75809;44.872;20.642;2024-01-27T13:54:34;4.63;;;1.30;;
75939;SDS011;75809;44.872;20.642;2024-01-27T13:57:00;5.82;;;1.70;;
75939;SDS011;75809;44.872;20.642;2024-01-27T13:59:26;7.63;;;1.85;;
75939;SDS011;75809;44.872;20.642;2024-01-27T14:01:52;3.30;;;1.02;;
75939;SDS011;75809;44.872;20.642;2024-01-27T14:04:18;4.75;;;1.45;;
75939;SDS011;75809;44.872;20.642;2024-01-27T14:06:43;4.18;;;1.08;;
75939;SDS011;75809;44.872;20.642;2024-01-27T14:09:10;6.30;;;1.73;;
75939;SDS011;75809;44.872;20.642;2024-01-27T14:11:35;4.10;;;1.40;;
75939;SDS011;75809;44.872;20.642;2024-01-27T14:14:01;4.80;;;1.30;;
75939;SDS011;75809;44.872;20.642;2024-01-27T14:16:26;4.10;;;1.50;;
75939;SDS011;75809;44.872;20.642;2024-01-27T14:18:53;5.90;;;1.70;;
75939;SDS011;75809;44.872;20.642;2024-01-27T14:21:19;5.97;;;1.70;;
75939;SDS011;75809;44.872;20.642;2024-01-27T14:23:44;5.28;;;1.52;;
75939;SDS011;75809;44.872;20.642;2024-01-27T14:26:10;6.07;;;2.15;;